sensor_id;sensor_type;location;lat;lon;timestamp;P1;durP1;ratioP1;P2;durP2;ratioP2
5821;SDS011;2937;48.562;8.022;2023-07-02T00:01:15;3.40;;;2.93;;
5821;SDS011;2937;48.562;8.022;2023-07-02T00:06:07;6.30;;;3.47;;
5821;SDS011;2937;48.562;8.022;2023-07-02T00:11:20;3.57;;;3.27;;
5821;SDS011;2937;48.562;8.022;2023-07-02T00:16:13;3.70;;;3.40;;
5821;SDS011;2937;48.562;8.022;2023-07-02T00:21:24;3.53;;;3.20;;
5821;SDS011;2937;48.562;8.022;2023-07-02T00:26:41;3.80;;;3.40;;
5821;SDS011;2937;48.562;8.022;2023-07-02T00:31:36;4.73;;;3.77;;
5821;SDS011;2937;48.562;8.022;2023-07-02T00:36:31;3.90;;;3.50;;
5821;SDS011;2937;48.562;8.022;2023-07-02T00:41:24;9.80;;;4.07;;
5821;SDS011;2937;48.562;8.022;2023-07-02T00:46:18;3.93;;;3.53;;
5821;SDS011;2937;48.562;8.022;2023-07-02T00:51:11;3.77;;;3.47;;
5821;SDS011;2937;48.562;8.022;2023-07-02T00:56:05;4.17;;;3.60;;
5821;SDS011;2937;48.562;8.022;2023-07-02T01:00:58;4.27;;;3.87;;
5821;SDS011;2937;48.562;8.022;2023-07-02T01:06:02;4.20;;;3.80;;
5821;SDS011;2937;48.562;8.022;2023-07-02T01:10:54;5.10;;;4.27;;
5821;SDS011;2937;48.562;8.022;2023-07-02T01:15:48;4.00;;;3.50;;
5821;SDS011;2937;48.562;8.022;2023-07-02T01:20:42;4.10;;;3.70;;
5821;SDS011;2937;48.562;8.022;2023-07-02T01:25:35;4.40;;;3.70;;
5821;SDS011;2937;48.562;8.022;2023-07-02T01:30:29;4.73;;;4.33;;
5821;SDS011;2937;48.562;8.022;2023-07-02T01:35:22;6.90;;;5.00;;
5821;SDS011;2937;48.562;8.022;2023-07-02T01:40:16;9.47;;;5.83;;
5821;SDS011;2937;48.562;8.022;2023-07-02T01:45:09;6.20;;;5.43;;
5821;SDS011;2937;48.562;8.022;2023-07-02T01:50:03;7.73;;;6.90;;
5821;SDS011;2937;48.562;8.022;2023-07-02T01:54:56;9.33;;;7.63;;
5821;SDS011;2937;48.562;8.022;2023-07-02T01:59:50;12.27;;;8.43;;
5821;SDS011;2937;48.562;8.022;2023-07-02T02:04:42;9.17;;;8.10;;
5821;SDS011;2937;48.562;8.022;2023-07-02T02:09:35;10.27;;;8.03;;
5821;SDS011;2937;48.562;8.022;2023-07-02T02:14:28;10.63;;;7.20;;
5821;SDS011;2937;48.562;8.022;2023-07-02T02:19:23;9.07;;;7.47;;
5821;SDS011;2937;48.562;8.022;2023-07-02T02:24:17;11.63;;;8.50;;
5821;SDS011;2937;48.562;8.022;2023-07-02T02:29:09;13.20;;;7.90;;
5821;SDS011;2937;48.562;8.022;2023-07-02T02:34:03;10.13;;;8.30;;
5821;SDS011;2937;48.562;8.022;2023-07-02T02:38:57;11.63;;;9.23;;
5821;SDS011;2937;48.562;8.022;2023-07-02T02:43:52;17.20;;;9.30;;
5821;SDS011;2937;48.562;8.022;2023-07-02T02:48:46;13.73;;;9.20;;
5821;SDS011;2937;48.562;8.022;2023-07-02T02:53:39;14.80;;;9.50;;
5821;SDS011;2937;48.562;8.022;2023-07-02T02:58:33;13.30;;;9.40;;
5821;SDS011;2937;48.562;8.022;2023-07-02T03:03:26;12.63;;;9.90;;
5821;SDS011;2937;48.562;8.022;2023-07-02T03:08:19;15.87;;;11.67;;
5821;SDS011;2937;48.562;8.022;2023-07-02T03:13:12;14.33;;;9.50;;
5821;SDS011;2937;48.562;8.022;2023-07-02T03:18:06;14.70;;;9.70;;
5821;SDS011;2937;48.562;8.022;2023-07-02T03:22:58;16.03;;;9.60;;
5821;SDS011;2937;48.562;8.022;2023-07-02T03:27:51;22.83;;;10.63;;
5821;SDS011;2937;48.562;8.022;2023-07-02T03:32:44;20.70;;;10.57;;
5821;SDS011;2937;48.562;8.022;2023-07-02T03:37:38;14.80;;;10.10;;
5821;SDS011;2937;48.562;8.022;2023-07-02T03:42:33;15.87;;;9.33;;
5821;SDS011;2937;48.562;8.022;2023-07-02T03:47:26;15.87;;;9.10;;
5821;SDS011;2937;48.562;8.022;2023-07-02T03:52:18;15.70;;;9.00;;
5821;SDS011;2937;48.562;8.022;2023-07-02T03:57:12;15.20;;;9.90;;
5821;SDS011;2937;48.562;8.022;2023-07-02T04:02:05;13.00;;;9.03;;
5821;SDS011;2937;48.562;8.022;2023-07-02T04:06:58;15.70;;;9.70;;
5821;SDS011;2937;48.562;8.022;2023-07-02T04:11:51;12.77;;;9.80;;
5821;SDS011;2937;48.562;8.022;2023-07-02T04:16:45;14.00;;;9.40;;
5821;SDS011;2937;48.562;8.022;2023-07-02T04:21:37;13.10;;;9.87;;
5821;SDS011;2937;48.562;8.022;2023-07-02T04:26:30;12.40;;;9.40;;
5821;SDS011;2937;48.562;8.022;2023-07-02T04:31:44;19.03;;;13.33;;
5821;SDS011;2937;48.562;8.022;2023-07-02T04:36:37;18.63;;;13.97;;
5821;SDS011;2937;48.562;8.022;2023-07-02T04:41:29;23.20;;;18.13;;
5821;SDS011;2937;48.562;8.022;2023-07-02T04:46:24;19.70;;;14.40;;
5821;SDS011;2937;48.562;8.022;2023-07-02T04:51:19;21.30;;;14.90;;
5821;SDS011;2937;48.562;8.022;2023-07-02T04:56:12;19.57;;;13.67;;
5821;SDS011;2937;48.562;8.022;2023-07-02T05:01:05;19.00;;;13.80;;
5821;SDS011;2937;48.562;8.022;2023-07-02T05:05:58;17.30;;;13.80;;
5821;SDS011;2937;48.562;8.022;2023-07-02T05:10:52;23.67;;;15.87;;
5821;SDS011;2937;48.562;8.022;2023-07-02T05:15:44;25.90;;;17.07;;
5821;SDS011;2937;48.562;8.022;2023-07-02T05:20:37;29.30;;;20.90;;
5821;SDS011;2937;48.562;8.022;2023-07-02T05:25:30;25.90;;;18.27;;
5821;SDS011;2937;48.562;8.022;2023-07-02T05:30:25;20.70;;;15.50;;
5821;SDS011;2937;48.562;8.022;2023-07-02T05:35:18;24.93;;;17.07;;
5821;SDS011;2937;48.562;8.022;2023-07-02T05:40:10;20.13;;;13.43;;
5821;SDS011;2937;48.562;8.022;2023-07-02T05:45:06;22.27;;;14.00;;
5821;SDS011;2937;48.562;8.022;2023-07-02T05:50:00;23.47;;;14.70;;
5821;SDS011;2937;48.562;8.022;2023-07-02T05:54:53;14.70;;;9.83;;
5821;SDS011;2937;48.562;8.022;2023-07-02T05:59:46;12.63;;;9.60;;
5821;SDS011;2937;48.562;8.022;2023-07-02T06:04:39;16.70;;;9.63;;
5821;SDS011;2937;48.562;8.022;2023-07-02T06:09:33;15.40;;;9.57;;
5821;SDS011;2937;48.562;8.022;2023-07-02T06:14:26;17.10;;;9.93;;
5821;SDS011;2937;48.562;8.022;2023-07-02T06:19:18;10.90;;;9.50;;
5821;SDS011;2937;48.562;8.022;2023-07-02T06:24:11;12.33;;;8.50;;
5821;SDS011;2937;48.562;8.022;2023-07-02T06:29:05;11.00;;;7.10;;
5821;SDS011;2937;48.562;8.022;2023-07-02T06:33:57;12.40;;;7.33;;
5821;SDS011;2937;48.562;8.022;2023-07-02T06:38:50;7.70;;;6.63;;
5821;SDS011;2937;48.562;8.022;2023-07-02T06:43:43;8.63;;;6.87;;
5821;SDS011;2937;48.562;8.022;2023-07-02T06:48:37;14.83;;;6.90;;
5821;SDS011;2937;48.562;8.022;2023-07-02T06:53:30;11.13;;;8.07;;
5821;SDS011;2937;48.562;8.022;2023-07-02T06:58:23;11.70;;;7.80;;
5821;SDS011;2937;48.562;8.022;2023-07-02T07:03:16;14.17;;;8.20;;
5821;SDS011;2937;48.562;8.022;2023-07-02T07:08:10;12.60;;;8.40;;
5821;SDS011;2937;48.562;8.022;2023-07-02T07:13:02;15.53;;;9.53;;
5821;SDS011;2937;48.562;8.022;2023-07-02T07:17:56;16.53;;;9.80;;
5821;SDS011;2937;48.562;8.022;2023-07-02T07:22:49;18.90;;;10.40;;
5821;SDS011;2937;48.562;8.022;2023-07-02T07:27:43;16.63;;;11.20;;
5821;SDS011;2937;48.562;8.022;2023-07-02T07:32:35;18.90;;;12.13;;
5821;SDS011;2937;48.562;8.022;2023-07-02T07:37:28;18.80;;;11.10;;
5821;SDS011;2937;48.562;8.022;2023-07-02T07:42:21;16.63;;;12.17;;
5821;SDS011;2937;48.562;8.022;2023-07-02T07:47:15;19.63;;;12.37;;
5821;SDS011;2937;48.562;8.022;2023-07-02T07:52:07;22.93;;;12.93;;
5821;SDS011;2937;48.562;8.022;2023-07-02T07:57:00;19.87;;;13.13;;
5821;SDS011;2937;48.562;8.022;2023-07-02T08:01:53;22.57;;;12.50;;
5821;SDS011;2937;48.562;8.022;2023-07-02T08:06:47;23.60;;;12.98;;
5821;SDS011;2937;48.562;8.022;2023-07-02T08:11:40;19.13;;;13.50;;
5821;SDS011;2937;48.562;8.022;2023-07-02T08:16:32;22.00;;;13.60;;
5821;SDS011;2937;48.562;8.022;2023-07-02T08:21:25;20.93;;;13.90;;
5821;SDS011;2937;48.562;8.022;2023-07-02T08:26:19;23.70;;;14.70;;
5821;SDS011;2937;48.562;8.022;2023-07-02T08:31:12;19.33;;;15.80;;
5821;SDS011;2937;48.562;8.022;2023-07-02T08:36:04;27.63;;;16.40;;
5821;SDS011;2937;48.562;8.022;2023-07-02T08:40:57;25.33;;;15.83;;
5821;SDS011;2937;48.562;8.022;2023-07-02T08:45:51;27.07;;;16.70;;
5821;SDS011;2937;48.562;8.022;2023-07-02T08:50:44;24.80;;;16.63;;
5821;SDS011;2937;48.562;8.022;2023-07-02T08:55:38;27.37;;;16.37;;
5821;SDS011;2937;48.562;8.022;2023-07-02T09:00:31;23.70;;;16.37;;
5821;SDS011;2937;48.562;8.022;2023-07-02T09:05:29;24.27;;;16.70;;
5821;SDS011;2937;48.562;8.022;2023-07-02T09:10:26;25.50;;;17.97;;
5821;SDS011;2937;48.562;8.022;2023-07-02T09:15:19;23.63;;;17.30;;
5821;SDS011;2937;48.562;8.022;2023-07-02T09:20:11;22.07;;;15.90;;
5821;SDS011;2937;48.562;8.022;2023-07-02T09:25:06;22.80;;;16.90;;
5821;SDS011;2937;48.562;8.022;2023-07-02T09:30:04;25.87;;;17.50;;
5821;SDS011;2937;48.562;8.022;2023-07-02T09:34:57;23.87;;;17.40;;
5821;SDS011;2937;48.562;8.022;2023-07-02T09:39:50;24.63;;;17.90;;
5821;SDS011;2937;48.562;8.022;2023-07-02T09:44:52;29.50;;;17.37;;
5821;SDS011;2937;48.562;8.022;2023-07-02T09:49:48;24.20;;;16.00;;
5821;SDS011;2937;48.562;8.022;2023-07-02T09:54:41;23.43;;;16.13;;
5821;SDS011;2937;48.562;8.022;2023-07-02T09:59:34;23.67;;;16.07;;
5821;SDS011;2937;48.562;8.022;2023-07-02T10:04:38;23.10;;;16.60;;
5821;SDS011;2937;48.562;8.022;2023-07-02T10:09:35;24.30;;;16.70;;
5821;SDS011;2937;48.562;8.022;2023-07-02T10:14:39;23.90;;;16.40;;
5821;SDS011;2937;48.562;8.022;2023-07-02T10:19:33;23.00;;;15.57;;
5821;SDS011;2937;48.562;8.022;2023-07-02T10:24:26;21.93;;;15.13;;
5821;SDS011;2937;48.562;8.022;2023-07-02T10:29:19;23.77;;;16.20;;
5821;SDS011;2937;48.562;8.022;2023-07-02T10:34:13;24.40;;;16.00;;
5821;SDS011;2937;48.562;8.022;2023-07-02T10:39:07;22.70;;;16.40;;
5821;SDS011;2937;48.562;8.022;2023-07-02T10:44:06;22.77;;;16.03;;
5821;SDS011;2937;48.562;8.022;2023-07-02T10:48:59;20.00;;;15.43;;
5821;SDS011;2937;48.562;8.022;2023-07-02T10:53:58;23.43;;;16.97;;
5821;SDS011;2937;48.562;8.022;2023-07-02T10:58:53;22.13;;;15.00;;
5821;SDS011;2937;48.562;8.022;2023-07-02T11:03:45;23.40;;;15.60;;
5821;SDS011;2937;48.562;8.022;2023-07-02T11:08:38;24.00;;;15.20;;
5821;SDS011;2937;48.562;8.022;2023-07-02T11:13:31;22.53;;;15.33;;
5821;SDS011;2937;48.562;8.022;2023-07-02T11:18:29;19.77;;;14.40;;
5821;SDS011;2937;48.562;8.022;2023-07-02T11:23:24;20.47;;;14.23;;
5821;SDS011;2937;48.562;8.022;2023-07-02T11:28:18;21.03;;;13.70;;
5821;SDS011;2937;48.562;8.022;2023-07-02T11:33:11;19.43;;;14.30;;
5821;SDS011;2937;48.562;8.022;2023-07-02T11:38:05;21.20;;;14.13;;
5821;SDS011;2937;48.562;8.022;2023-07-02T11:42:58;20.27;;;15.00;;
5821;SDS011;2937;48.562;8.022;2023-07-02T11:47:50;21.83;;;15.10;;
5821;SDS011;2937;48.562;8.022;2023-07-02T11:52:43;23.73;;;15.33;;
5821;SDS011;2937;48.562;8.022;2023-07-02T11:57:37;20.83;;;14.73;;
5821;SDS011;2937;48.562;8.022;2023-07-02T12:02:30;21.13;;;14.70;;
5821;SDS011;2937;48.562;8.022;2023-07-02T12:07:23;20.67;;;15.20;;
5821;SDS011;2937;48.562;8.022;2023-07-02T12:12:16;22.27;;;15.80;;
5821;SDS011;2937;48.562;8.022;2023-07-02T12:17:10;21.00;;;14.60;;
5821;SDS011;2937;48.562;8.022;2023-07-02T12:22:03;22.10;;;15.63;;
5821;SDS011;2937;48.562;8.022;2023-07-02T12:26:56;25.90;;;15.00;;
5821;SDS011;2937;48.562;8.022;2023-07-02T12:31:49;21.73;;;15.17;;
5821;SDS011;2937;48.562;8.022;2023-07-02T12:36:43;20.83;;;14.87;;
5821;SDS011;2937;48.562;8.022;2023-07-02T12:41:35;20.17;;;15.37;;
5821;SDS011;2937;48.562;8.022;2023-07-02T12:46:28;20.60;;;16.30;;
5821;SDS011;2937;48.562;8.022;2023-07-02T12:51:21;19.83;;;14.87;;
5821;SDS011;2937;48.562;8.022;2023-07-02T12:56:15;20.73;;;15.67;;
5821;SDS011;2937;48.562;8.022;2023-07-02T13:01:08;20.57;;;15.67;;
5821;SDS011;2937;48.562;8.022;2023-07-02T13:06:00;19.93;;;15.87;;
5821;SDS011;2937;48.562;8.022;2023-07-02T13:10:53;20.97;;;15.27;;
5821;SDS011;2937;48.562;8.022;2023-07-02T13:15:47;21.77;;;16.10;;
5821;SDS011;2937;48.562;8.022;2023-07-02T13:20:40;19.20;;;14.90;;
5821;SDS011;2937;48.562;8.022;2023-07-02T13:25:33;20.00;;;14.80;;
5821;SDS011;2937;48.562;8.022;2023-07-02T13:30:25;20.90;;;15.03;;
5821;SDS011;2937;48.562;8.022;2023-07-02T13:35:21;18.43;;;14.50;;
5821;SDS011;2937;48.562;8.022;2023-07-02T13:40:14;18.60;;;14.37;;
5821;SDS011;2937;48.562;8.022;2023-07-02T13:45:07;18.23;;;14.53;;
5821;SDS011;2937;48.562;8.022;2023-07-02T13:50:00;18.93;;;13.97;;
5821;SDS011;2937;48.562;8.022;2023-07-02T13:54:55;19.20;;;14.27;;
5821;SDS011;2937;48.562;8.022;2023-07-02T13:59:49;22.57;;;14.90;;
5821;SDS011;2937;48.562;8.022;2023-07-02T14:04:41;19.87;;;14.30;;
5821;SDS011;2937;48.562;8.022;2023-07-02T14:09:34;20.20;;;14.53;;
5821;SDS011;2937;48.562;8.022;2023-07-02T14:14:27;19.50;;;13.83;;
5821;SDS011;2937;48.562;8.022;2023-07-02T14:19:21;20.57;;;14.23;;
5821;SDS011;2937;48.562;8.022;2023-07-02T14:24:14;19.73;;;14.30;;
5821;SDS011;2937;48.562;8.022;2023-07-02T14:29:07;19.03;;;14.73;;
5821;SDS011;2937;48.562;8.022;2023-07-02T14:33:59;19.37;;;13.97;;
5821;SDS011;2937;48.562;8.022;2023-07-02T14:38:53;23.27;;;14.20;;
5821;SDS011;2937;48.562;8.022;2023-07-02T14:43:46;17.93;;;14.03;;
5821;SDS011;2937;48.562;8.022;2023-07-02T14:48:39;20.67;;;14.30;;
5821;SDS011;2937;48.562;8.022;2023-07-02T14:53:32;19.43;;;13.50;;
5821;SDS011;2937;48.562;8.022;2023-07-02T14:58:27;19.40;;;13.23;;
5821;SDS011;2937;48.562;8.022;2023-07-02T15:03:21;18.63;;;13.77;;
5821;SDS011;2937;48.562;8.022;2023-07-02T15:08:14;20.37;;;14.60;;
5821;SDS011;2937;48.562;8.022;2023-07-02T15:13:08;20.00;;;14.17;;
5821;SDS011;2937;48.562;8.022;2023-07-02T15:18:02;19.50;;;14.20;;
5821;SDS011;2937;48.562;8.022;2023-07-02T15:22:55;17.57;;;13.40;;
5821;SDS011;2937;48.562;8.022;2023-07-02T15:27:48;20.43;;;14.00;;
5821;SDS011;2937;48.562;8.022;2023-07-02T15:32:41;18.10;;;14.00;;
5821;SDS011;2937;48.562;8.022;2023-07-02T15:37:35;21.10;;;13.80;;
5821;SDS011;2937;48.562;8.022;2023-07-02T15:42:27;17.00;;;13.37;;
5821;SDS011;2937;48.562;8.022;2023-07-02T15:47:21;21.23;;;14.23;;
5821;SDS011;2937;48.562;8.022;2023-07-02T15:52:14;19.93;;;12.70;;
5821;SDS011;2937;48.562;8.022;2023-07-02T15:57:08;22.23;;;14.13;;
5821;SDS011;2937;48.562;8.022;2023-07-02T16:02:01;17.73;;;13.70;;
5821;SDS011;2937;48.562;8.022;2023-07-02T16:06:53;18.50;;;13.60;;
5821;SDS011;2937;48.562;8.022;2023-07-02T16:11:46;18.67;;;13.07;;
5821;SDS011;2937;48.562;8.022;2023-07-02T16:16:41;25.87;;;13.97;;
5821;SDS011;2937;48.562;8.022;2023-07-02T16:21:34;20.50;;;13.70;;
5821;SDS011;2937;48.562;8.022;2023-07-02T16:26:28;21.00;;;13.40;;
5821;SDS011;2937;48.562;8.022;2023-07-02T16:31:21;22.50;;;14.10;;
5821;SDS011;2937;48.562;8.022;2023-07-02T16:36:15;18.17;;;12.63;;
5821;SDS011;2937;48.562;8.022;2023-07-02T16:41:07;18.90;;;13.67;;
5821;SDS011;2937;48.562;8.022;2023-07-02T16:46:02;22.30;;;13.33;;
5821;SDS011;2937;48.562;8.022;2023-07-02T16:50:56;18.47;;;13.10;;
5821;SDS011;2937;48.562;8.022;2023-07-02T16:55:50;17.83;;;12.60;;
5821;SDS011;2937;48.562;8.022;2023-07-02T17:00:43;17.10;;;12.70;;
5821;SDS011;2937;48.562;8.022;2023-07-02T17:05:36;18.97;;;12.70;;
5821;SDS011;2937;48.562;8.022;2023-07-02T17:10:29;17.80;;;13.17;;
5821;SDS011;2937;48.562;8.022;2023-07-02T17:15:22;19.03;;;12.77;;
5821;SDS011;2937;48.562;8.022;2023-07-02T17:20:15;17.57;;;12.20;;
5821;SDS011;2937;48.562;8.022;2023-07-02T17:25:08;21.80;;;13.40;;
5821;SDS011;2937;48.562;8.022;2023-07-02T17:30:03;18.67;;;12.60;;
5821;SDS011;2937;48.562;8.022;2023-07-02T17:34:57;20.97;;;12.83;;
5821;SDS011;2937;48.562;8.022;2023-07-02T17:39:50;19.17;;;12.43;;
5821;SDS011;2937;48.562;8.022;2023-07-02T17:44:45;23.13;;;12.50;;
5821;SDS011;2937;48.562;8.022;2023-07-02T17:49:38;20.80;;;12.27;;
5821;SDS011;2937;48.562;8.022;2023-07-02T17:54:33;19.30;;;12.43;;
5821;SDS011;2937;48.562;8.022;2023-07-02T17:59:28;20.03;;;11.60;;
5821;SDS011;2937;48.562;8.022;2023-07-02T18:04:22;19.43;;;12.10;;
5821;SDS011;2937;48.562;8.022;2023-07-02T18:09:18;17.80;;;11.97;;
5821;SDS011;2937;48.562;8.022;2023-07-02T18:14:12;24.07;;;13.07;;
5821;SDS011;2937;48.562;8.022;2023-07-02T18:19:05;19.70;;;12.70;;
5821;SDS011;2937;48.562;8.022;2023-07-02T18:23:58;21.53;;;12.57;;
5821;SDS011;2937;48.562;8.022;2023-07-02T18:28:52;21.70;;;12.70;;
5821;SDS011;2937;48.562;8.022;2023-07-02T18:33:46;23.00;;;13.20;;
5821;SDS011;2937;48.562;8.022;2023-07-02T18:38:39;22.47;;;14.00;;
5821;SDS011;2937;48.562;8.022;2023-07-02T18:43:31;21.50;;;12.77;;
5821;SDS011;2937;48.562;8.022;2023-07-02T18:48:24;26.20;;;13.13;;
5821;SDS011;2937;48.562;8.022;2023-07-02T18:53:19;19.80;;;12.10;;
5821;SDS011;2937;48.562;8.022;2023-07-02T18:58:11;20.17;;;12.50;;
5821;SDS011;2937;48.562;8.022;2023-07-02T19:03:04;22.43;;;13.50;;
5821;SDS011;2937;48.562;8.022;2023-07-02T19:07:57;21.90;;;13.40;;
5821;SDS011;2937;48.562;8.022;2023-07-02T19:12:51;22.33;;;13.30;;
5821;SDS011;2937;48.562;8.022;2023-07-02T19:17:43;26.13;;;13.10;;
5821;SDS011;2937;48.562;8.022;2023-07-02T19:22:36;24.23;;;13.00;;
5821;SDS011;2937;48.562;8.022;2023-07-02T19:27:29;22.20;;;12.37;;
5821;SDS011;2937;48.562;8.022;2023-07-02T19:32:24;22.27;;;12.00;;
5821;SDS011;2937;48.562;8.022;2023-07-02T19:37:17;22.73;;;12.60;;
5821;SDS011;2937;48.562;8.022;2023-07-02T19:42:10;25.13;;;13.13;;
5821;SDS011;2937;48.562;8.022;2023-07-02T19:47:05;21.23;;;12.87;;
5821;SDS011;2937;48.562;8.022;2023-07-02T19:52:00;20.87;;;12.10;;
5821;SDS011;2937;48.562;8.022;2023-07-02T19:56:52;24.40;;;11.40;;
5821;SDS011;2937;48.562;8.022;2023-07-02T20:01:45;20.37;;;11.23;;
5821;SDS011;2937;48.562;8.022;2023-07-02T20:06:38;22.03;;;12.80;;
5821;SDS011;2937;48.562;8.022;2023-07-02T20:11:32;27.77;;;12.73;;
5821;SDS011;2937;48.562;8.022;2023-07-02T20:16:25;28.33;;;12.97;;
5821;SDS011;2937;48.562;8.022;2023-07-02T20:21:19;20.83;;;12.07;;
5821;SDS011;2937;48.562;8.022;2023-07-02T20:26:12;25.13;;;13.07;;
5821;SDS011;2937;48.562;8.022;2023-07-02T20:31:06;21.53;;;13.07;;
5821;SDS011;2937;48.562;8.022;2023-07-02T20:35:59;24.73;;;13.07;;
5821;SDS011;2937;48.562;8.022;2023-07-02T20:40:58;23.63;;;13.80;;
5821;SDS011;2937;48.562;8.022;2023-07-02T20:45:53;23.27;;;13.40;;
5821;SDS011;2937;48.562;8.022;2023-07-02T20:50:50;26.43;;;13.27;;
5821;SDS011;2937;48.562;8.022;2023-07-02T20:55:42;28.00;;;13.87;;
5821;SDS011;2937;48.562;8.022;2023-07-02T21:00:36;26.23;;;13.47;;
5821;SDS011;2937;48.562;8.022;2023-07-02T21:05:44;28.10;;;13.23;;
5821;SDS011;2937;48.562;8.022;2023-07-02T21:10:40;24.37;;;12.37;;
5821;SDS011;2937;48.562;8.022;2023-07-02T21:15:33;20.50;;;12.03;;
5821;SDS011;2937;48.562;8.022;2023-07-02T21:20:28;22.87;;;11.63;;
5821;SDS011;2937;48.562;8.022;2023-07-02T21:25:21;24.50;;;12.47;;
5821;SDS011;2937;48.562;8.022;2023-07-02T21:30:15;24.53;;;12.67;;
5821;SDS011;2937;48.562;8.022;2023-07-02T21:35:08;19.47;;;12.10;;
5821;SDS011;2937;48.562;8.022;2023-07-02T21:40:01;25.37;;;12.93;;
5821;SDS011;2937;48.562;8.022;2023-07-02T21:44:54;28.47;;;13.63;;
5821;SDS011;2937;48.562;8.022;2023-07-02T21:49:48;19.60;;;12.47;;
5821;SDS011;2937;48.562;8.022;2023-07-02T21:54:40;23.17;;;13.27;;
5821;SDS011;2937;48.562;8.022;2023-07-02T21:59:33;25.27;;;12.97;;
5821;SDS011;2937;48.562;8.022;2023-07-02T22:04:26;23.63;;;13.33;;
5821;SDS011;2937;48.562;8.022;2023-07-02T22:09:20;22.30;;;13.70;;
5821;SDS011;2937;48.562;8.022;2023-07-02T22:14:12;23.40;;;13.10;;
5821;SDS011;2937;48.562;8.022;2023-07-02T22:19:05;22.13;;;13.47;;
5821;SDS011;2937;48.562;8.022;2023-07-02T22:23:58;23.10;;;11.90;;
5821;SDS011;2937;48.562;8.022;2023-07-02T22:28:53;26.83;;;13.70;;
5821;SDS011;2937;48.562;8.022;2023-07-02T22:33:45;24.10;;;13.23;;
5821;SDS011;2937;48.562;8.022;2023-07-02T22:38:38;25.33;;;13.53;;
5821;SDS011;2937;48.562;8.022;2023-07-02T22:43:30;20.87;;;12.60;;
5821;SDS011;2937;48.562;8.022;2023-07-02T22:48:24;20.10;;;11.97;;
5821;SDS011;2937;48.562;8.022;2023-07-02T22:53:17;22.03;;;12.33;;
5821;SDS011;2937;48.562;8.022;2023-07-02T22:58:10;23.77;;;12.77;;
5821;SDS011;2937;48.562;8.022;2023-07-02T23:03:03;22.80;;;12.37;;
5821;SDS011;2937;48.562;8.022;2023-07-02T23:07:57;22.23;;;12.63;;
5821;SDS011;2937;48.562;8.022;2023-07-02T23:12:50;22.07;;;12.50;;
5821;SDS011;2937;48.562;8.022;2023-07-02T23:17:44;26.73;;;13.87;;
5821;SDS011;2937;48.562;8.022;2023-07-02T23:22:37;20.50;;;12.50;;
5821;SDS011;2937;48.562;8.022;2023-07-02T23:27:32;29.77;;;13.40;;
5821;SDS011;2937;48.562;8.022;2023-07-02T23:32:30;21.57;;;12.70;;
5821;SDS011;2937;48.562;8.022;2023-07-02T23:37:23;19.93;;;11.93;;
5821;SDS011;2937;48.562;8.022;2023-07-02T23:42:15;24.30;;;13.33;;
5821;SDS011;2937;48.562;8.022;2023-07-02T23:47:09;22.13;;;11.93;;
5821;SDS011;2937;48.562;8.022;2023-07-02T23:52:02;20.83;;;12.90;;
5821;SDS011;2937;48.562;8.022;2023-07-02T23:56:55;25.93;;;13.17;;
